createdAt,value
2018-12-15T00:01:22.171Z,10.33
2018-12-15T00:03:50.313Z,6.60
2018-12-15T00:06:18.507Z,14.47
2018-12-15T00:08:46.661Z,10.10
2018-12-15T00:11:14.835Z,9.47
2018-12-15T00:13:43.013Z,14.97
2018-12-15T00:16:11.224Z,9.37
2018-12-15T00:18:39.449Z,8.83
2018-12-15T00:21:07.580Z,8.73
2018-12-15T00:23:35.802Z,10.10
2018-12-15T00:26:03.999Z,9.30
2018-12-15T00:28:32.123Z,12.10
2018-12-15T00:31:00.282Z,7.33
2018-12-15T00:33:28.559Z,12.03
2018-12-15T00:35:56.770Z,7.50
2018-12-15T00:38:24.902Z,11.73
2018-12-15T00:40:54.058Z,13.37
2018-12-15T00:43:22.216Z,10.03
2018-12-15T00:45:50.350Z,8.37
2018-12-15T00:48:18.605Z,14.03
2018-12-15T00:50:46.744Z,11.83
2018-12-15T00:53:14.970Z,12.17
2018-12-15T00:55:43.109Z,8.20
2018-12-15T00:58:11.231Z,7.00
2018-12-15T01:00:39.490Z,12.33
2018-12-15T01:03:07.895Z,9.37
2018-12-15T01:05:36.061Z,8.10
2018-12-15T01:08:04.290Z,10.67
2018-12-15T01:10:32.463Z,11.17
2018-12-15T01:13:00.614Z,13.73
2018-12-15T01:15:34.115Z,8.80
2018-12-15T01:18:02.310Z,11.50
2018-12-15T01:20:30.421Z,14.73
2018-12-15T01:22:58.485Z,9.03
2018-12-15T01:25:26.615Z,6.50
2018-12-15T01:27:54.843Z,9.67
2018-12-15T01:30:23.129Z,5.00
2018-12-15T01:32:51.198Z,9.50
2018-12-15T01:35:19.461Z,8.57
2018-12-15T01:37:47.645Z,7.93
2018-12-15T01:40:15.870Z,10.50
2018-12-15T01:42:44.089Z,6.87
2018-12-15T01:45:12.209Z,6.57
2018-12-15T01:47:40.341Z,5.60
2018-12-15T01:50:08.606Z,10.17
2018-12-15T01:52:36.769Z,10.60
2018-12-15T01:55:04.919Z,7.37
2018-12-15T01:57:33.037Z,5.90
2018-12-15T02:00:01.255Z,7.43
2018-12-15T02:02:29.436Z,6.80
2018-12-15T02:04:57.645Z,7.30
2018-12-15T02:07:25.802Z,4.13
2018-12-15T02:09:54.978Z,8.80
2018-12-15T02:12:23.156Z,8.00
2018-12-15T02:14:51.337Z,4.30
2018-12-15T02:17:19.461Z,5.23
2018-12-15T02:19:47.611Z,8.07
2018-12-15T02:22:15.763Z,7.33
2018-12-15T02:24:44.026Z,9.40
2018-12-15T02:27:12.230Z,6.07
2018-12-15T02:29:40.388Z,7.30
2018-12-15T02:32:08.556Z,6.13
2018-12-15T02:34:36.795Z,5.80
2018-12-15T02:37:05.048Z,6.50
2018-12-15T02:39:33.217Z,8.73
2018-12-15T02:42:01.371Z,2.83
2018-12-15T02:44:29.538Z,7.40
2018-12-15T02:46:57.762Z,5.13
2018-12-15T02:49:27.005Z,7.30
2018-12-15T02:51:55.266Z,5.67
2018-12-15T02:54:23.363Z,7.33
2018-12-15T02:56:51.468Z,9.27
2018-12-15T02:59:19.652Z,6.80
2018-12-15T03:01:47.754Z,4.10
2018-12-15T03:04:16.352Z,5.57
2018-12-15T03:06:44.527Z,6.03
2018-12-15T03:09:12.808Z,7.73
2018-12-15T03:11:40.962Z,7.12
2018-12-15T03:14:09.142Z,6.47
2018-12-15T03:16:37.335Z,6.87
2018-12-15T03:19:11.144Z,3.83
2018-12-15T03:21:39.317Z,6.30
2018-12-15T03:24:07.520Z,5.37
2018-12-15T03:26:35.694Z,4.93
2018-12-15T03:29:03.845Z,7.80
2018-12-15T03:31:34.449Z,3.73
2018-12-15T03:34:02.734Z,10.17
2018-12-15T03:36:30.863Z,6.63
2018-12-15T03:38:59.006Z,5.43
2018-12-15T03:41:29.196Z,6.70
2018-12-15T03:43:57.378Z,5.47
2018-12-15T03:46:25.533Z,5.73
2018-12-15T03:48:53.745Z,10.30
2018-12-15T03:51:21.849Z,5.63
2018-12-15T03:53:50.041Z,3.40
2018-12-15T03:56:19.154Z,5.07
2018-12-15T03:58:47.338Z,5.30
2018-12-15T04:01:15.536Z,4.47
2018-12-15T04:03:43.702Z,6.37
2018-12-15T04:06:11.909Z,3.63
2018-12-15T04:08:40.095Z,4.73
2018-12-15T04:11:08.214Z,4.90
2018-12-15T04:13:36.481Z,9.57
2018-12-15T04:16:04.769Z,5.67
2018-12-15T04:18:32.957Z,6.10
2018-12-15T04:21:01.207Z,5.13
2018-12-15T04:23:29.291Z,5.80
2018-12-15T04:25:57.492Z,5.17
2018-12-15T04:28:25.612Z,5.10
2018-12-15T04:30:54.879Z,5.70
2018-12-15T04:33:23.043Z,6.27
2018-12-15T04:35:51.182Z,6.23
2018-12-15T04:38:19.386Z,4.83
2018-12-15T04:40:47.557Z,3.93
2018-12-15T04:43:15.852Z,5.27
2018-12-15T04:45:43.971Z,7.77
2018-12-15T04:48:12.169Z,10.67
2018-12-15T04:50:40.340Z,5.57
2018-12-15T04:53:08.528Z,4.97
2018-12-15T04:55:36.699Z,6.63
2018-12-15T04:58:04.780Z,6.63
2018-12-15T05:00:32.960Z,5.63
2018-12-15T05:03:01.138Z,4.97
2018-12-15T05:05:29.268Z,7.13
2018-12-15T05:07:57.402Z,9.30
2018-12-15T05:10:25.540Z,8.37
2018-12-15T05:12:53.718Z,12.53
2018-12-15T05:15:21.853Z,7.80
2018-12-15T05:17:49.906Z,4.77
2018-12-15T05:20:18.045Z,8.07
2018-12-15T05:22:46.221Z,6.17
2018-12-15T05:25:14.570Z,7.57
2018-12-15T05:27:42.731Z,9.90
2018-12-15T05:30:11.003Z,7.23
2018-12-15T05:32:39.243Z,5.77
2018-12-15T05:35:07.391Z,11.13
2018-12-15T05:37:35.633Z,7.87
2018-12-15T05:40:03.949Z,8.43
2018-12-15T05:42:32.087Z,7.17
2018-12-15T05:45:00.249Z,8.03
2018-12-15T05:47:28.406Z,8.40
2018-12-15T05:49:56.468Z,6.70
2018-12-15T05:52:24.611Z,6.47
2018-12-15T05:54:52.775Z,6.67
2018-12-15T05:57:20.965Z,7.30
2018-12-15T05:59:49.248Z,6.17
2018-12-15T06:02:18.005Z,4.87
2018-12-15T06:04:46.077Z,9.00
2018-12-15T06:07:14.374Z,10.73
2018-12-15T06:09:42.539Z,8.17
2018-12-15T06:12:10.779Z,8.53
2018-12-15T06:14:38.889Z,7.20
2018-12-15T06:17:07.075Z,9.73
2018-12-15T06:19:35.188Z,6.93
2018-12-15T06:22:03.334Z,12.30
2018-12-15T06:24:31.471Z,11.13
2018-12-15T06:26:59.669Z,5.57
2018-12-15T06:29:27.742Z,6.50
2018-12-15T06:31:55.936Z,8.67
2018-12-15T06:34:24.092Z,8.97
2018-12-15T06:36:52.306Z,11.47
2018-12-15T06:39:20.448Z,6.70
2018-12-15T06:41:48.604Z,8.40
2018-12-15T06:44:16.795Z,11.07
2018-12-15T06:46:44.975Z,6.73
2018-12-15T06:49:13.208Z,7.53
2018-12-15T06:51:41.370Z,10.10
2018-12-15T06:54:09.545Z,9.83
2018-12-15T06:56:37.679Z,7.53
2018-12-15T06:59:05.907Z,9.47
2018-12-15T07:01:34.093Z,8.13
2018-12-15T07:04:02.219Z,8.40
2018-12-15T07:06:30.337Z,6.60
2018-12-15T07:08:58.634Z,11.17
2018-12-15T07:11:26.892Z,11.80
2018-12-15T07:13:56.003Z,9.23
2018-12-15T07:16:24.165Z,5.53
2018-12-15T07:18:52.327Z,9.97
2018-12-15T07:21:20.561Z,11.17
2018-12-15T07:23:48.686Z,10.30
2018-12-15T07:26:16.852Z,7.87
2018-12-15T07:28:45.101Z,13.40
2018-12-15T07:31:13.323Z,11.50
2018-12-15T07:33:41.498Z,8.37
2018-12-15T07:36:09.678Z,8.27
2018-12-15T07:38:37.803Z,11.33
2018-12-15T07:41:06.965Z,6.43
2018-12-15T07:43:35.134Z,5.63
2018-12-15T07:46:03.292Z,7.90
2018-12-15T07:48:31.576Z,8.33
2018-12-15T07:50:59.730Z,11.30
2018-12-15T07:53:27.943Z,7.07
2018-12-15T07:55:56.104Z,8.90
2018-12-15T07:58:24.273Z,9.83
2018-12-15T08:00:52.531Z,11.00
2018-12-15T08:03:20.739Z,10.23
2018-12-15T08:05:48.919Z,5.97
2018-12-15T08:08:17.067Z,8.50
2018-12-15T08:10:50.671Z,10.87
2018-12-15T08:13:28.138Z,8.10
2018-12-15T08:15:57.745Z,10.07
2018-12-15T08:18:25.982Z,8.67
2018-12-15T08:20:54.087Z,8.33
2018-12-15T08:23:22.192Z,8.53
2018-12-15T08:25:50.430Z,8.23
2018-12-15T08:28:18.554Z,9.53
2018-12-15T08:30:46.750Z,6.90
2018-12-15T08:33:14.811Z,7.30
2018-12-15T08:35:42.974Z,10.30
2018-12-15T08:38:11.184Z,6.73
2018-12-15T08:40:39.351Z,7.93
2018-12-15T08:43:07.497Z,10.27
2018-12-15T08:45:35.658Z,7.27
2018-12-15T08:48:03.845Z,9.03
2018-12-15T08:50:32.044Z,6.63
2018-12-15T08:53:00.197Z,11.23
2018-12-15T08:55:28.380Z,5.70
2018-12-15T08:57:56.547Z,7.20
2018-12-15T09:00:24.747Z,7.37
2018-12-15T09:02:52.887Z,9.97
2018-12-15T09:05:21.107Z,10.77
2018-12-15T09:07:49.254Z,11.20
2018-12-15T09:10:17.381Z,9.80
2018-12-15T09:12:45.475Z,8.23
2018-12-15T09:15:13.667Z,11.97
2018-12-15T09:17:41.874Z,8.47
2018-12-15T09:20:10.015Z,9.70
2018-12-15T09:22:38.136Z,11.53
2018-12-15T09:25:06.266Z,10.33
2018-12-15T09:27:34.451Z,9.13
2018-12-15T09:30:02.577Z,13.50
2018-12-15T09:32:30.799Z,13.70
2018-12-15T09:34:58.951Z,13.00
2018-12-15T09:37:27.161Z,11.70
2018-12-15T09:39:55.313Z,8.70
2018-12-15T09:42:23.562Z,8.37
2018-12-15T09:44:51.753Z,14.47
2018-12-15T09:47:19.963Z,11.40
2018-12-15T09:49:48.102Z,14.73
2018-12-15T09:52:16.274Z,13.07
2018-12-15T09:54:44.536Z,9.53
2018-12-15T09:57:12.591Z,13.27
2018-12-15T09:59:40.675Z,11.57
2018-12-15T10:02:08.844Z,10.03
2018-12-15T10:04:36.935Z,9.73
2018-12-15T10:07:05.157Z,10.73
2018-12-15T10:09:33.446Z,14.40
2018-12-15T10:12:01.642Z,10.23
2018-12-15T10:14:29.814Z,11.00
2018-12-15T10:16:57.910Z,9.93
2018-12-15T10:19:26.145Z,11.33
2018-12-15T10:21:54.233Z,12.20
2018-12-15T10:24:22.349Z,10.60
2018-12-15T10:26:50.595Z,12.33
2018-12-15T10:29:24.324Z,11.40
2018-12-15T10:31:57.864Z,12.03
2018-12-15T10:34:26.001Z,9.77
2018-12-15T10:36:54.162Z,16.17
2018-12-15T10:39:22.354Z,11.70
2018-12-15T10:41:50.517Z,17.73
2018-12-15T10:44:18.750Z,15.63
2018-12-15T10:46:46.866Z,25.80
2018-12-15T10:49:15.020Z,12.37
2018-12-15T10:51:43.223Z,13.80
2018-12-15T10:54:11.437Z,16.20
2018-12-15T10:56:39.583Z,13.90
2018-12-15T10:59:07.629Z,13.17
2018-12-15T11:01:36.741Z,11.80
2018-12-15T11:04:04.947Z,12.17
2018-12-15T11:06:33.098Z,14.37
2018-12-15T11:09:01.247Z,16.03
2018-12-15T11:11:29.495Z,14.20
2018-12-15T11:13:57.666Z,10.83
2018-12-15T11:16:25.795Z,14.93
2018-12-15T11:18:53.999Z,10.90
2018-12-15T11:21:22.230Z,11.87
2018-12-15T11:23:50.439Z,14.63
2018-12-15T11:26:18.558Z,12.63
2018-12-15T11:28:46.660Z,13.20
2018-12-15T11:31:14.878Z,10.20
2018-12-15T11:33:43.013Z,10.67
2018-12-15T11:36:11.281Z,16.83
2018-12-15T11:38:39.442Z,9.73
2018-12-15T11:41:07.676Z,14.13
2018-12-15T11:43:35.786Z,11.57
2018-12-15T11:46:03.979Z,13.07
2018-12-15T11:48:32.134Z,13.03
2018-12-15T11:51:00.366Z,12.53
2018-12-15T11:53:28.489Z,12.37
2018-12-15T11:55:56.668Z,14.47
2018-12-15T11:58:24.880Z,20.00
2018-12-15T12:00:53.019Z,11.53
2018-12-15T12:03:21.209Z,15.63
2018-12-15T12:05:49.384Z,16.80
2018-12-15T12:08:17.651Z,13.40
2018-12-15T12:10:45.835Z,15.33
2018-12-15T12:13:13.951Z,12.50
2018-12-15T12:15:42.103Z,11.73
2018-12-15T12:18:10.312Z,13.70
2018-12-15T12:20:38.451Z,13.13
2018-12-15T12:23:06.635Z,11.77
2018-12-15T12:25:34.789Z,14.47
2018-12-15T12:28:02.973Z,16.23
2018-12-15T12:30:31.137Z,12.40
2018-12-15T12:32:59.470Z,13.30
2018-12-15T12:35:27.775Z,17.00
2018-12-15T12:37:55.942Z,16.77
2018-12-15T12:40:24.211Z,12.53
2018-12-15T12:42:52.493Z,12.87
2018-12-15T12:45:20.566Z,11.23
2018-12-15T12:47:48.738Z,12.07
2018-12-15T12:50:16.901Z,17.20
2018-12-15T12:52:45.295Z,12.57
2018-12-15T12:55:13.312Z,19.20
2018-12-15T12:57:42.504Z,14.00
2018-12-15T13:00:10.595Z,14.80
2018-12-15T13:02:38.715Z,16.77
2018-12-15T13:05:06.885Z,17.77
2018-12-15T13:07:35.069Z,15.37
2018-12-15T13:10:03.550Z,15.87
2018-12-15T13:12:31.742Z,15.43
2018-12-15T13:14:59.859Z,15.43
2018-12-15T13:17:27.975Z,14.30
2018-12-15T13:19:56.151Z,22.27
2018-12-15T13:22:24.342Z,16.80
2018-12-15T13:24:52.481Z,20.83
2018-12-15T13:27:20.668Z,16.63
2018-12-15T13:29:48.868Z,14.83
2018-12-15T13:32:17.013Z,20.27
2018-12-15T13:34:45.202Z,15.30
2018-12-15T13:37:13.505Z,15.10
2018-12-15T13:39:41.682Z,15.10
2018-12-15T13:42:09.843Z,17.87
2018-12-15T13:44:38.005Z,18.50
2018-12-15T13:47:06.183Z,18.30
2018-12-15T13:49:34.389Z,13.33
2018-12-15T13:52:02.537Z,17.13
2018-12-15T13:54:30.719Z,15.40
2018-12-15T13:56:58.887Z,9.97
2018-12-15T13:59:27.063Z,23.80
2018-12-15T14:01:55.229Z,14.47
2018-12-15T14:04:23.356Z,12.83
2018-12-15T14:06:51.494Z,15.00
2018-12-15T14:09:19.629Z,17.03
2018-12-15T14:11:47.782Z,15.93
2018-12-15T14:14:15.919Z,12.93
2018-12-15T14:16:44.081Z,15.80
2018-12-15T14:19:12.203Z,13.63
2018-12-15T14:21:40.295Z,15.97
2018-12-15T14:24:08.441Z,15.80
2018-12-15T14:26:36.581Z,17.17
2018-12-15T14:29:04.757Z,16.07
2018-12-15T14:31:32.913Z,11.87
2018-12-15T14:34:02.194Z,15.93
2018-12-15T14:36:30.406Z,24.10
2018-12-15T14:38:58.755Z,11.73
2018-12-15T14:41:26.955Z,15.47
2018-12-15T14:43:55.201Z,14.63
2018-12-15T14:46:23.414Z,17.50
2018-12-15T14:48:51.521Z,14.37
2018-12-15T14:51:19.625Z,14.13
2018-12-15T14:53:48.725Z,14.10
2018-12-15T14:56:16.893Z,13.73
2018-12-15T14:58:45.082Z,15.70
2018-12-15T15:01:13.211Z,18.57
2018-12-15T15:03:41.294Z,17.30
2018-12-15T15:06:09.383Z,16.13
2018-12-15T15:08:37.594Z,17.40
2018-12-15T15:11:05.799Z,19.07
2018-12-15T15:13:34.711Z,16.57
2018-12-15T15:16:03.243Z,18.87
2018-12-15T15:18:31.417Z,14.87
2018-12-15T15:20:59.603Z,14.53
2018-12-15T15:23:27.749Z,16.40
2018-12-15T15:25:55.937Z,18.17
2018-12-15T15:28:24.095Z,17.70
2018-12-15T15:30:52.274Z,15.00
2018-12-15T15:33:20.460Z,19.67
2018-12-15T15:35:48.634Z,15.33
2018-12-15T15:38:17.837Z,16.13
2018-12-15T15:40:46.036Z,17.27
2018-12-15T15:43:14.208Z,17.00
2018-12-15T15:45:42.359Z,14.67
2018-12-15T15:48:10.610Z,15.73
2018-12-15T15:50:38.806Z,14.97
2018-12-15T15:53:06.962Z,17.77
2018-12-15T15:55:35.145Z,19.43
2018-12-15T15:58:03.342Z,21.83
2018-12-15T16:00:31.442Z,22.07
2018-12-15T16:02:59.571Z,21.13
2018-12-15T16:05:27.734Z,17.87
2018-12-15T16:07:55.952Z,19.60
2018-12-15T16:10:24.193Z,13.20
2018-12-15T16:12:52.385Z,26.13
2018-12-15T16:15:20.540Z,19.47
2018-12-15T16:17:48.731Z,18.57
2018-12-15T16:20:16.864Z,23.03
2018-12-15T16:22:45.041Z,18.57
2018-12-15T16:25:13.107Z,15.33
2018-12-15T16:27:41.222Z,15.83
2018-12-15T16:30:11.545Z,19.53
2018-12-15T16:32:39.725Z,20.23
2018-12-15T16:35:07.966Z,14.83
2018-12-15T16:37:36.099Z,17.23
2018-12-15T16:40:06.002Z,15.77
2018-12-15T16:42:34.099Z,21.10
2018-12-15T16:45:02.234Z,19.93
2018-12-15T16:47:30.418Z,21.23
2018-12-15T16:49:58.596Z,16.43
2018-12-15T16:52:27.287Z,20.70
2018-12-15T16:54:56.122Z,17.43
2018-12-15T16:57:24.267Z,16.77
2018-12-15T16:59:52.419Z,18.20
2018-12-15T17:02:20.599Z,17.10
2018-12-15T17:04:49.758Z,19.07
2018-12-15T17:07:17.966Z,14.77
2018-12-15T17:09:46.128Z,16.97
2018-12-15T17:12:14.340Z,17.03
2018-12-15T17:14:42.502Z,16.83
2018-12-15T17:17:10.658Z,21.77
2018-12-15T17:19:38.830Z,17.87
2018-12-15T17:22:07.016Z,26.33
2018-12-15T17:24:35.113Z,20.53
2018-12-15T17:27:03.253Z,19.00
2018-12-15T17:29:31.444Z,18.23
2018-12-15T17:31:59.625Z,18.67
2018-12-15T17:34:27.729Z,18.83
2018-12-15T17:36:55.830Z,16.97
2018-12-15T17:39:24.120Z,18.70
2018-12-15T17:41:52.223Z,25.00
2018-12-15T17:44:20.356Z,22.67
2018-12-15T17:46:48.575Z,17.73
2018-12-15T17:49:16.723Z,19.17
2018-12-15T17:51:44.941Z,21.67
2018-12-15T17:54:13.077Z,20.83
2018-12-15T17:56:41.242Z,22.47
2018-12-15T17:59:09.357Z,24.60
2018-12-15T18:01:37.509Z,21.90
2018-12-15T18:04:05.698Z,21.43
2018-12-15T18:06:33.793Z,21.53
2018-12-15T18:10:31.193Z,24.10
2018-12-15T18:12:59.348Z,24.33
2018-12-15T18:15:27.555Z,20.70
2018-12-15T18:17:55.742Z,22.97
2018-12-15T18:20:23.865Z,25.20
2018-12-15T18:22:51.986Z,20.87
2018-12-15T18:25:20.191Z,26.23
2018-12-15T18:27:48.498Z,25.27
2018-12-15T18:30:16.840Z,31.87
2018-12-15T18:32:44.974Z,23.37
2018-12-15T18:35:13.168Z,26.00
2018-12-15T18:37:41.308Z,22.97
2018-12-15T18:40:09.796Z,22.13
2018-12-15T18:42:37.972Z,27.87
2018-12-15T18:45:06.768Z,25.40
2018-12-15T18:47:34.949Z,28.30
2018-12-15T18:50:03.172Z,29.60
2018-12-15T18:52:31.287Z,22.00
2018-12-15T18:54:59.521Z,27.97
2018-12-15T18:57:27.630Z,24.73
2018-12-15T18:59:55.830Z,26.57
2018-12-15T19:02:23.995Z,24.30
2018-12-15T19:04:52.219Z,24.33
2018-12-15T19:07:20.519Z,24.10
2018-12-15T19:09:48.733Z,24.73
2018-12-15T19:12:16.896Z,19.60
2018-12-15T19:14:45.087Z,26.50
2018-12-15T19:17:13.281Z,20.43
2018-12-15T19:19:41.416Z,28.97
2018-12-15T19:22:10.614Z,25.47
2018-12-15T19:24:38.791Z,23.17
2018-12-15T19:27:06.968Z,21.43
2018-12-15T19:29:35.146Z,25.10
2018-12-15T19:32:03.359Z,21.83
2018-12-15T19:34:31.513Z,23.40
2018-12-15T19:36:59.669Z,23.70
2018-12-15T19:39:28.878Z,24.43
2018-12-15T19:41:56.968Z,26.40
2018-12-15T19:44:25.149Z,35.17
2018-12-15T19:46:53.278Z,28.73
2018-12-15T19:49:21.460Z,25.30
2018-12-15T19:51:49.622Z,24.00
2018-12-15T19:54:17.813Z,23.37
2018-12-15T19:56:46.011Z,21.57
2018-12-15T19:59:15.241Z,23.73
2018-12-15T20:01:43.640Z,30.83
2018-12-15T20:04:11.801Z,34.07
2018-12-15T20:06:39.980Z,26.03
2018-12-15T20:09:09.534Z,30.40
2018-12-15T20:11:37.887Z,31.83
2018-12-15T20:14:06.070Z,25.87
2018-12-15T20:16:34.255Z,31.20
2018-12-15T20:19:02.397Z,22.80
2018-12-15T20:21:35.963Z,34.87
2018-12-15T20:24:00.713Z,28.53
2018-12-15T20:26:28.865Z,24.73
2018-12-15T20:28:57.150Z,35.77
2018-12-15T20:31:25.324Z,31.10
2018-12-15T20:33:53.499Z,28.33
2018-12-15T20:36:21.666Z,25.23
2018-12-15T20:38:49.906Z,27.27
2018-12-15T20:41:19.280Z,27.13
2018-12-15T20:43:47.564Z,26.93
2018-12-15T20:46:15.717Z,34.90
2018-12-15T20:48:43.980Z,25.83
2018-12-15T20:51:13.171Z,38.00
2018-12-15T20:53:41.395Z,25.77
2018-12-15T20:56:09.577Z,33.43
2018-12-15T20:58:37.727Z,30.07
2018-12-15T21:01:06.001Z,22.20
2018-12-15T21:03:34.159Z,30.70
2018-12-15T21:06:02.403Z,30.43
2018-12-15T21:08:30.527Z,34.43
2018-12-15T21:10:58.675Z,28.63
2018-12-15T21:13:26.889Z,24.37
2018-12-15T21:15:57.507Z,22.67
2018-12-15T21:18:25.983Z,32.93
2018-12-15T21:20:54.149Z,27.83
2018-12-15T21:23:22.297Z,34.27
2018-12-15T21:25:50.410Z,37.03
2018-12-15T21:28:18.593Z,27.30
2018-12-15T21:30:46.905Z,32.07
2018-12-15T21:33:14.999Z,32.07
2018-12-15T21:35:43.264Z,41.43
2018-12-15T21:38:11.430Z,27.67
2018-12-15T21:40:39.591Z,33.43
2018-12-15T21:43:07.714Z,29.20
2018-12-15T21:45:36.027Z,28.43
2018-12-15T21:48:04.272Z,33.63
2018-12-15T21:50:32.464Z,29.80
2018-12-15T21:53:00.668Z,34.77
2018-12-15T21:57:48.415Z,24.47
2018-12-15T22:00:16.574Z,36.80
2018-12-15T22:02:44.727Z,29.60
2018-12-15T22:05:12.996Z,34.07
2018-12-15T22:07:41.194Z,39.47
2018-12-15T22:10:09.321Z,34.23
2018-12-15T22:12:38.443Z,31.97
2018-12-15T22:15:07.005Z,30.80
2018-12-15T22:17:35.123Z,36.43
2018-12-15T22:20:03.907Z,29.13
2018-12-15T22:22:32.083Z,36.77
2018-12-15T22:25:00.274Z,31.70
2018-12-15T22:27:28.362Z,31.47
2018-12-15T22:29:56.502Z,35.37
2018-12-15T22:32:24.664Z,33.57
2018-12-15T22:34:52.870Z,37.40
2018-12-15T22:37:21.045Z,32.67
2018-12-15T22:39:49.216Z,38.63
2018-12-15T22:42:17.335Z,37.23
2018-12-15T22:44:45.443Z,40.10
2018-12-15T22:47:13.634Z,37.73
2018-12-15T22:49:41.778Z,35.87
2018-12-15T22:52:10.112Z,28.00
2018-12-15T22:54:39.368Z,34.07
2018-12-15T22:57:07.590Z,45.47
2018-12-15T22:59:35.704Z,34.43
2018-12-15T23:02:03.880Z,36.13
2018-12-15T23:04:32.167Z,34.33
2018-12-15T23:07:00.381Z,27.57
2018-12-15T23:09:28.486Z,38.47
2018-12-15T23:11:56.693Z,41.00
2018-12-15T23:14:24.848Z,28.73
2018-12-15T23:16:53.038Z,39.70
2018-12-15T23:19:21.139Z,37.97
2018-12-15T23:21:49.271Z,35.73
2018-12-15T23:24:17.753Z,36.33
2018-12-15T23:26:45.917Z,34.60
2018-12-15T23:29:14.091Z,43.87
2018-12-15T23:31:42.290Z,34.20
2018-12-15T23:34:10.420Z,29.53
2018-12-15T23:36:38.604Z,32.57
2018-12-15T23:39:07.790Z,40.93
2018-12-15T23:41:35.966Z,44.43
2018-12-15T23:44:04.133Z,41.40
2018-12-15T23:46:32.273Z,29.03
2018-12-15T23:49:00.410Z,33.53
2018-12-15T23:51:28.582Z,28.50
2018-12-15T23:53:56.749Z,30.40
2018-12-15T23:56:24.859Z,30.03
2018-12-15T23:58:53.050Z,33.27
